Archival Weather

Half Moon Bay

Half Moon Bay, California (KHAF)

Report from: Thursday, September 21, 2023 12:15 AM PDT
Current time: Saturday, February 24, 2024 7:35 AM PST

Current weather – Weather history – Daily summaries
Weather forecast

Temperature15.0°C (59.0°F)
Dew point12.0°C (53.6°F)
Winds 7 kts (3.6 m/s, 8.1 mph) South (180°)
Visibility5 mi. (8 km)
Altimeter29.86 in.Hg (1011 mB)
Relative humidity82 %
Density altitude267 ft. (81 m)
Remarks Fully automated report
Automated weather observing station with precipitation discriminator
Flight conditions Visual Meteorological Conditions
Raw dataKHAF 210715Z AUTO 18007KT 5SM HZ 15/12 A2986 RMK AO2
An error has occurred. This application may no longer respond until reloaded. Reload 🗙